createdAt,value
2019-05-25T00:00:49.402Z,0
2019-05-25T00:02:03.524Z,0
2019-05-25T00:03:17.731Z,0
2019-05-25T00:04:31.914Z,0
2019-05-25T00:05:46.092Z,0
2019-05-25T00:07:00.297Z,0
2019-05-25T00:10:42.851Z,0
2019-05-25T00:11:57.027Z,0
2019-05-25T00:13:11.233Z,0
2019-05-25T00:14:25.431Z,0
2019-05-25T00:15:39.634Z,0
2019-05-25T00:16:53.833Z,0
2019-05-25T00:18:08.090Z,0
2019-05-25T00:19:22.263Z,0
2019-05-25T00:21:50.700Z,0
2019-05-25T00:23:07.979Z,0
2019-05-25T00:24:20.869Z,0
2019-05-25T00:25:33.289Z,0
2019-05-25T00:26:47.369Z,0
2019-05-25T00:28:01.561Z,0
2019-05-25T00:29:20.769Z,0
2019-05-25T00:30:29.970Z,0
2019-05-25T00:31:44.181Z,0
2019-05-25T00:32:58.474Z,0
2019-05-25T00:34:12.558Z,0
2019-05-25T00:35:26.755Z,0
2019-05-25T00:36:41.033Z,0
2019-05-25T00:37:55.140Z,0
2019-05-25T00:39:09.441Z,0
2019-05-25T00:40:23.626Z,0
2019-05-25T00:41:37.836Z,0
2019-05-25T00:42:52.005Z,0
2019-05-25T00:44:06.173Z,0
2019-05-25T00:46:34.610Z,0
2019-05-25T00:47:48.703Z,0
2019-05-25T00:49:02.907Z,0
2019-05-25T00:50:17.097Z,0
2019-05-25T00:51:31.316Z,0
2019-05-25T00:52:45.497Z,0
2019-05-25T00:53:59.792Z,0
2019-05-25T00:55:13.880Z,0
2019-05-25T00:56:28.065Z,0
2019-05-25T00:57:42.349Z,0
2019-05-25T00:58:56.457Z,0
2019-05-25T01:00:10.679Z,0
2019-05-25T01:01:24.868Z,0
2019-05-25T01:02:39.055Z,0
2019-05-25T01:03:53.308Z,0
2019-05-25T01:05:07.623Z,0
2019-05-25T01:06:21.613Z,0
2019-05-25T01:07:35.809Z,0
2019-05-25T01:08:50.006Z,0
2019-05-25T01:10:04.232Z,0
2019-05-25T01:11:18.400Z,0
2019-05-25T01:12:32.661Z,0
2019-05-25T01:13:46.762Z,0
2019-05-25T01:15:00.955Z,0
2019-05-25T01:16:15.243Z,0
2019-05-25T01:17:29.335Z,0
2019-05-25T01:18:43.610Z,0
2019-05-25T01:19:57.803Z,0
2019-05-25T01:21:11.982Z,0
2019-05-25T01:22:26.088Z,0
2019-05-25T01:23:40.382Z,0
2019-05-25T01:24:54.689Z,0
2019-05-25T01:26:08.678Z,0
2019-05-25T01:27:22.966Z,0
2019-05-25T01:28:37.317Z,0
2019-05-25T01:29:51.338Z,0
2019-05-25T01:31:05.448Z,0
2019-05-25T01:32:19.657Z,0
2019-05-25T01:33:33.844Z,0
2019-05-25T01:34:48.039Z,0
2019-05-25T01:36:02.255Z,0
2019-05-25T01:37:16.447Z,0
2019-05-25T01:38:30.714Z,0
2019-05-25T01:39:44.830Z,0
2019-05-25T01:40:59.129Z,0
2019-05-25T01:42:13.241Z,0
2019-05-25T01:43:28.842Z,0
2019-05-25T01:44:41.624Z,0
2019-05-25T01:45:55.944Z,0
2019-05-25T01:47:10.021Z,0
2019-05-25T01:48:24.216Z,0
2019-05-25T01:49:38.423Z,0
2019-05-25T01:50:52.617Z,0
2019-05-25T01:52:06.895Z,0
2019-05-25T01:53:21.033Z,0
2019-05-25T01:54:35.210Z,0
2019-05-25T01:55:49.416Z,0
2019-05-25T01:57:03.689Z,0
2019-05-25T01:58:17.800Z,0
2019-05-25T01:59:32.010Z,0
2019-05-25T02:00:46.197Z,0
2019-05-25T02:02:00.524Z,0
2019-05-25T02:03:14.586Z,0
2019-05-25T02:04:28.789Z,0
2019-05-25T02:05:42.986Z,0
2019-05-25T02:06:57.186Z,0
2019-05-25T02:08:11.386Z,0
2019-05-25T02:09:25.705Z,0
2019-05-25T02:10:39.774Z,0
2019-05-25T02:11:53.962Z,0
2019-05-25T02:13:08.172Z,0
2019-05-25T02:14:22.415Z,0
2019-05-25T02:15:36.557Z,0
2019-05-25T02:16:50.757Z,0
2019-05-25T02:18:04.957Z,0
2019-05-25T02:19:19.240Z,0
2019-05-25T02:20:33.412Z,0
2019-05-25T02:21:47.568Z,0
2019-05-25T02:23:01.825Z,0
2019-05-25T02:24:16.022Z,0
2019-05-25T02:25:30.456Z,0
2019-05-25T02:26:44.471Z,0
2019-05-25T02:27:58.532Z,0
2019-05-25T02:29:12.752Z,0
2019-05-25T02:30:26.950Z,0
2019-05-25T02:31:41.235Z,0
2019-05-25T02:32:55.342Z,0
2019-05-25T02:34:09.518Z,0
2019-05-25T02:35:23.781Z,0
2019-05-25T02:36:37.886Z,0
2019-05-25T02:37:52.107Z,0
2019-05-25T02:39:06.510Z,0
2019-05-25T02:40:20.465Z,0
2019-05-25T02:41:34.759Z,0
2019-05-25T02:42:48.863Z,0
2019-05-25T02:44:03.180Z,0
2019-05-25T02:45:17.245Z,0
2019-05-25T02:46:37.511Z,0
2019-05-25T02:47:45.632Z,0
2019-05-25T02:48:59.819Z,0
2019-05-25T02:50:14.024Z,0
2019-05-25T02:51:28.282Z,0
2019-05-25T02:52:42.543Z,0
2019-05-25T02:53:56.587Z,0
2019-05-25T02:55:10.773Z,0
2019-05-25T02:56:24.964Z,0
2019-05-25T02:57:39.254Z,0
2019-05-25T02:58:53.373Z,0
2019-05-25T03:00:07.639Z,0
2019-05-25T03:01:21.736Z,0
2019-05-25T03:02:36.081Z,0
2019-05-25T03:03:50.123Z,0
2019-05-25T03:05:04.327Z,0
2019-05-25T03:06:18.673Z,0
2019-05-25T03:07:35.471Z,0
2019-05-25T03:08:50.749Z,0
2019-05-25T03:10:01.108Z,0
2019-05-25T03:11:15.284Z,0
2019-05-25T03:12:29.569Z,0
2019-05-25T03:13:43.662Z,0
2019-05-25T03:14:57.949Z,0
2019-05-25T03:17:26.236Z,5
2019-05-25T03:18:40.525Z,5
2019-05-25T03:19:54.607Z,5
2019-05-25T03:21:08.787Z,5
2019-05-25T03:22:23.197Z,5
2019-05-25T03:23:37.188Z,5
2019-05-25T03:24:51.537Z,5
2019-05-25T03:27:20.826Z,11
2019-05-25T03:28:33.882Z,11
2019-05-25T03:29:48.126Z,11
2019-05-25T03:32:16.446Z,11
2019-05-25T03:33:30.651Z,11
2019-05-25T03:34:44.846Z,11
2019-05-25T03:35:59.026Z,16
2019-05-25T03:37:13.308Z,16
2019-05-25T03:38:27.441Z,16
2019-05-25T03:39:41.580Z,16
2019-05-25T03:40:55.707Z,16
2019-05-25T03:42:09.995Z,22
2019-05-25T03:43:24.085Z,28
2019-05-25T03:44:38.347Z,28
2019-05-25T03:45:52.442Z,28
2019-05-25T03:47:06.681Z,28
2019-05-25T03:48:20.855Z,33
2019-05-25T03:49:35.003Z,33
2019-05-25T03:50:49.275Z,39
2019-05-25T03:52:03.426Z,45
2019-05-25T03:53:17.597Z,50
2019-05-25T03:54:31.771Z,50
2019-05-25T03:55:46.032Z,56
2019-05-25T03:57:00.137Z,56
2019-05-25T03:58:14.318Z,61
2019-05-25T03:59:28.501Z,67
2019-05-25T04:00:42.697Z,78
2019-05-25T04:01:56.870Z,78
2019-05-25T04:03:11.079Z,84
2019-05-25T04:04:25.341Z,90
2019-05-25T04:05:39.442Z,95
2019-05-25T04:06:53.636Z,101
2019-05-25T04:08:07.827Z,112
2019-05-25T04:09:22.126Z,123
2019-05-25T04:10:36.289Z,135
2019-05-25T04:13:08.319Z,151
2019-05-25T04:14:18.772Z,157
2019-05-25T04:15:32.930Z,151
2019-05-25T04:16:47.100Z,146
2019-05-25T04:18:01.284Z,151
2019-05-25T04:19:15.487Z,163
2019-05-25T04:20:29.733Z,163
2019-05-25T04:22:58.035Z,174
2019-05-25T04:24:12.250Z,180
2019-05-25T04:25:26.323Z,180
2019-05-25T04:26:40.636Z,174
2019-05-25T04:27:54.655Z,174
2019-05-25T04:30:23.021Z,174
2019-05-25T04:31:37.203Z,163
2019-05-25T04:32:51.330Z,163
2019-05-25T04:34:05.495Z,163
2019-05-25T04:36:33.853Z,163
2019-05-25T04:37:48.024Z,168
2019-05-25T04:39:02.184Z,174
2019-05-25T04:40:16.352Z,180
2019-05-25T04:41:30.593Z,185
2019-05-25T04:42:44.694Z,196
2019-05-25T04:43:58.987Z,208
2019-05-25T04:45:13.046Z,219
2019-05-25T04:46:27.209Z,219
2019-05-25T04:47:41.391Z,230
2019-05-25T04:48:55.617Z,236
2019-05-25T04:50:09.777Z,236
2019-05-25T04:51:23.939Z,241
2019-05-25T04:52:38.018Z,241
2019-05-25T04:53:52.266Z,247
2019-05-25T04:55:06.426Z,253
2019-05-25T04:56:20.501Z,270
2019-05-25T04:57:34.665Z,270
2019-05-25T04:58:48.827Z,275
2019-05-25T05:00:03.086Z,292
2019-05-25T05:01:17.249Z,298
2019-05-25T05:03:45.574Z,303
2019-05-25T05:04:59.636Z,292
2019-05-25T05:06:13.802Z,298
2019-05-25T05:07:27.973Z,298
2019-05-25T05:08:42.160Z,292
2019-05-25T05:09:56.275Z,281
2019-05-25T05:11:10.542Z,270
2019-05-25T05:12:24.596Z,247
2019-05-25T05:13:38.857Z,241
2019-05-25T05:16:07.123Z,247
2019-05-25T05:17:21.239Z,253
2019-05-25T05:18:35.373Z,253
2019-05-25T05:19:49.510Z,247
2019-05-25T05:21:03.681Z,247
2019-05-25T05:22:17.829Z,253
2019-05-25T05:23:32.066Z,264
2019-05-25T05:26:00.389Z,298
2019-05-25T05:27:14.438Z,309
2019-05-25T05:28:28.603Z,326
2019-05-25T05:29:42.759Z,303
2019-05-25T05:30:56.907Z,292
2019-05-25T05:32:11.169Z,298
2019-05-25T05:33:25.292Z,315
2019-05-25T05:34:39.361Z,331
2019-05-25T05:35:53.588Z,326
2019-05-25T05:37:07.655Z,315
2019-05-25T05:38:21.903Z,309
2019-05-25T05:39:36.120Z,303
2019-05-25T05:40:50.150Z,298
2019-05-25T05:42:04.399Z,303
2019-05-25T05:43:18.421Z,309
2019-05-25T05:45:46.719Z,309
2019-05-25T05:47:00.893Z,298
2019-05-25T05:48:15.178Z,298
2019-05-25T05:50:43.335Z,309
2019-05-25T05:53:11.652Z,315
2019-05-25T05:54:25.780Z,326
2019-05-25T05:56:54.089Z,326
2019-05-25T05:58:08.317Z,326
2019-05-25T05:59:22.399Z,331
2019-05-25T06:00:36.600Z,331
2019-05-25T06:01:50.704Z,331
2019-05-25T06:03:06.689Z,331
2019-05-25T06:04:19.032Z,343
2019-05-25T06:05:33.245Z,360
2019-05-25T06:06:47.311Z,371
2019-05-25T06:08:01.462Z,376
2019-05-25T06:09:15.607Z,388
2019-05-25T06:10:29.766Z,393
2019-05-25T06:11:43.998Z,410
2019-05-25T06:12:58.050Z,410
2019-05-25T06:14:12.206Z,416
2019-05-25T06:15:26.342Z,433
2019-05-25T06:16:40.499Z,450
2019-05-25T06:17:54.734Z,461
2019-05-25T06:19:08.788Z,466
2019-05-25T06:20:22.989Z,472
2019-05-25T06:21:37.176Z,489
2019-05-25T06:22:51.308Z,517
2019-05-25T06:24:05.426Z,528
2019-05-25T06:25:19.573Z,556
2019-05-25T06:26:33.632Z,579
2019-05-25T06:27:47.849Z,596
2019-05-25T06:29:01.913Z,613
2019-05-25T06:30:16.052Z,646
2019-05-25T06:31:30.188Z,680
2019-05-25T06:32:44.491Z,731
2019-05-25T06:35:12.728Z,793
2019-05-25T06:36:26.850Z,821
2019-05-25T06:37:41.006Z,877
2019-05-25T06:40:09.297Z,855
2019-05-25T06:41:23.312Z,849
2019-05-25T06:42:37.614Z,871
2019-05-25T06:45:05.786Z,832
2019-05-25T06:47:33.966Z,787
2019-05-25T06:50:02.289Z,866
2019-05-25T06:51:16.408Z,866
2019-05-25T06:52:30.453Z,776
2019-05-25T06:53:44.669Z,686
2019-05-25T06:55:00.878Z,663
2019-05-25T06:56:12.843Z,691
2019-05-25T06:57:26.969Z,1231
2019-05-25T06:58:41.104Z,781
2019-05-25T06:59:55.239Z,776
2019-05-25T07:01:09.374Z,1046
2019-05-25T07:02:23.495Z,781
2019-05-25T07:03:37.609Z,787
2019-05-25T07:04:51.742Z,1108
2019-05-25T07:06:05.981Z,860
2019-05-25T07:07:19.997Z,748
2019-05-25T07:08:34.119Z,725
2019-05-25T07:09:48.260Z,703
2019-05-25T07:11:02.474Z,652
2019-05-25T07:12:16.499Z,663
2019-05-25T07:13:30.627Z,686
2019-05-25T07:14:44.801Z,708
2019-05-25T07:15:58.874Z,720
2019-05-25T07:17:13.028Z,714
2019-05-25T07:18:27.262Z,736
2019-05-25T07:19:41.259Z,759
2019-05-25T07:20:55.395Z,781
2019-05-25T07:22:09.518Z,776
2019-05-25T07:24:37.767Z,793
2019-05-25T07:25:51.966Z,815
2019-05-25T07:28:20.152Z,877
2019-05-25T07:29:34.272Z,894
2019-05-25T07:30:51.319Z,916
2019-05-25T07:32:02.529Z,950
2019-05-25T07:33:16.655Z,978
2019-05-25T07:34:30.778Z,1012
2019-05-25T07:35:45.202Z,1001
2019-05-25T07:36:59.017Z,990
2019-05-25T07:38:13.139Z,967
2019-05-25T07:39:27.235Z,950
2019-05-25T07:41:55.463Z,905
2019-05-25T07:43:09.686Z,877
2019-05-25T07:44:23.753Z,849
2019-05-25T07:45:37.822Z,815
2019-05-25T07:46:51.916Z,815
2019-05-25T07:48:06.145Z,849
2019-05-25T07:49:20.170Z,900
2019-05-25T07:50:34.376Z,950
2019-05-25T07:51:48.479Z,1040
2019-05-25T07:53:07.481Z,1119
2019-05-25T07:54:16.637Z,2227
2019-05-25T07:55:30.764Z,2233
2019-05-25T07:56:44.910Z,2165
2019-05-25T07:57:59.088Z,1653
2019-05-25T07:59:13.036Z,1254
2019-05-25T08:00:27.194Z,1895
2019-05-25T08:01:41.287Z,2716
2019-05-25T08:02:55.268Z,2469
2019-05-25T08:04:09.334Z,1440
2019-05-25T08:05:23.402Z,1513
2019-05-25T08:06:37.472Z,1299
2019-05-25T08:07:51.549Z,1372
2019-05-25T08:09:05.704Z,2362
2019-05-25T08:10:19.815Z,1355
2019-05-25T08:11:33.847Z,1395
2019-05-25T08:12:47.921Z,1451
2019-05-25T08:14:02.023Z,1462
2019-05-25T08:15:16.013Z,1580
2019-05-25T08:16:30.052Z,2081
2019-05-25T08:17:44.209Z,2598
2019-05-25T08:18:58.267Z,2587
2019-05-25T08:20:12.251Z,1473
2019-05-25T08:21:26.311Z,1327
2019-05-25T08:22:40.424Z,2098
2019-05-25T08:23:54.596Z,1248
2019-05-25T08:25:08.631Z,1822
2019-05-25T08:26:22.600Z,1676
2019-05-25T08:27:36.673Z,1153
2019-05-25T08:28:50.736Z,1276
2019-05-25T08:30:04.802Z,1271
2019-05-25T08:31:18.870Z,2266
2019-05-25T08:32:32.940Z,1231
2019-05-25T08:33:47.132Z,1265
2019-05-25T08:35:01.094Z,1299
2019-05-25T08:36:15.204Z,1209
2019-05-25T08:37:29.271Z,1153
2019-05-25T08:38:43.364Z,1158
2019-05-25T08:39:57.463Z,1175
2019-05-25T08:41:11.592Z,1237
2019-05-25T08:42:25.642Z,1260
2019-05-25T08:43:39.720Z,1305
2019-05-25T08:44:53.817Z,1361
2019-05-25T08:46:07.920Z,1451
2019-05-25T08:47:22.131Z,1575
2019-05-25T08:48:36.200Z,1586
2019-05-25T08:49:50.228Z,1468
2019-05-25T08:51:04.308Z,1383
2019-05-25T08:52:20.634Z,1395
2019-05-25T08:53:32.596Z,1355
2019-05-25T08:54:46.578Z,1350
2019-05-25T08:56:00.680Z,1428
2019-05-25T08:57:14.785Z,2649
2019-05-25T08:58:28.859Z,1608
2019-05-25T09:00:57.110Z,1456
2019-05-25T09:04:39.389Z,1665
2019-05-25T09:05:53.394Z,1507
2019-05-25T09:07:07.496Z,1440
2019-05-25T09:08:21.578Z,1462
2019-05-25T09:09:35.757Z,1395
2019-05-25T09:10:49.762Z,1361
2019-05-25T09:12:03.923Z,1580
2019-05-25T09:13:18.029Z,3273
2019-05-25T09:14:32.015Z,1884
2019-05-25T09:15:46.080Z,1850
2019-05-25T09:17:00.157Z,3301
2019-05-25T09:19:28.303Z,3189
2019-05-25T09:20:42.359Z,3605
2019-05-25T09:21:56.405Z,3639
2019-05-25T09:23:10.431Z,3566
2019-05-25T09:24:24.494Z,2913
2019-05-25T09:25:38.593Z,2829
2019-05-25T09:26:52.701Z,1456
2019-05-25T09:28:06.634Z,1158
2019-05-25T09:29:20.632Z,1035
2019-05-25T09:30:34.809Z,1012
2019-05-25T09:31:48.925Z,1023
2019-05-25T09:33:02.852Z,1051
2019-05-25T09:34:16.938Z,1158
2019-05-25T09:35:31.023Z,1305
2019-05-25T09:36:45.191Z,3757
2019-05-25T09:37:59.204Z,3768
2019-05-25T09:39:13.251Z,1946
2019-05-25T09:40:27.312Z,1496
2019-05-25T09:41:41.412Z,1400
2019-05-25T09:42:55.449Z,1389
2019-05-25T09:44:09.532Z,1749
2019-05-25T09:45:23.606Z,1198
2019-05-25T09:46:37.796Z,1006
2019-05-25T09:47:51.784Z,1035
2019-05-25T09:50:20.217Z,1811
2019-05-25T09:51:34.129Z,2199
2019-05-25T09:52:48.143Z,2908
2019-05-25T09:55:16.342Z,1513
2019-05-25T09:56:30.314Z,1338
2019-05-25T09:57:44.450Z,1260
2019-05-25T09:58:58.451Z,1215
2019-05-25T10:00:12.615Z,2666
2019-05-25T10:01:26.773Z,3853
2019-05-25T10:02:40.711Z,4106
2019-05-25T10:03:54.728Z,3661
2019-05-25T10:05:08.870Z,1406
2019-05-25T10:07:36.918Z,1670
2019-05-25T10:08:51.279Z,3099
2019-05-25T10:10:05.028Z,1901
2019-05-25T10:11:19.192Z,1749
2019-05-25T10:12:33.289Z,1996
2019-05-25T10:13:47.241Z,2975
2019-05-25T10:15:01.297Z,3369
2019-05-25T10:16:15.358Z,1906
2019-05-25T10:17:29.420Z,4050
2019-05-25T10:18:43.502Z,2340
2019-05-25T10:19:57.531Z,1558
2019-05-25T10:21:11.596Z,1423
2019-05-25T10:22:25.655Z,1260
2019-05-25T10:23:39.821Z,1215
2019-05-25T10:24:53.817Z,1215
2019-05-25T10:26:07.969Z,1389
2019-05-25T10:27:22.019Z,3521
2019-05-25T10:28:36.144Z,2705
2019-05-25T10:29:50.059Z,4567
2019-05-25T10:31:04.106Z,2053
2019-05-25T10:32:18.181Z,2019
2019-05-25T10:33:32.393Z,1828
2019-05-25T10:34:46.330Z,1546
2019-05-25T10:36:00.877Z,1530
2019-05-25T10:37:14.361Z,1558
2019-05-25T10:38:28.410Z,3898
2019-05-25T10:39:42.574Z,1653
2019-05-25T10:40:56.495Z,1665
2019-05-25T10:42:10.597Z,2452
2019-05-25T10:43:24.617Z,4421
2019-05-25T10:44:38.695Z,1670
2019-05-25T10:45:52.968Z,1473
2019-05-25T10:48:20.970Z,1321
2019-05-25T10:49:34.929Z,1372
2019-05-25T10:50:48.995Z,1428
2019-05-25T10:52:03.128Z,1614
2019-05-25T10:53:17.184Z,2610
2019-05-25T10:54:31.249Z,1209
2019-05-25T10:55:45.302Z,1209
2019-05-25T10:56:59.397Z,1389
2019-05-25T10:58:13.486Z,3661
2019-05-25T10:59:27.564Z,3155
2019-05-25T11:00:41.603Z,3240
2019-05-25T11:01:55.666Z,1850
2019-05-25T11:03:09.814Z,1766
2019-05-25T11:04:23.783Z,2480
2019-05-25T11:05:37.919Z,2064
2019-05-25T11:06:51.896Z,3757
2019-05-25T11:09:20.105Z,1749
2019-05-25T11:10:34.155Z,1698
2019-05-25T11:11:48.168Z,1620
2019-05-25T11:13:02.299Z,1423
2019-05-25T11:14:16.294Z,1310
2019-05-25T11:15:30.385Z,1366
2019-05-25T11:16:44.479Z,1321
2019-05-25T11:17:58.569Z,1327
2019-05-25T11:19:12.665Z,1411
2019-05-25T11:20:26.985Z,1507
2019-05-25T11:21:40.932Z,1597
2019-05-25T11:22:54.959Z,1608
2019-05-25T11:24:09.074Z,1614
2019-05-25T11:25:23.148Z,1698
2019-05-25T11:26:37.266Z,1816
2019-05-25T11:27:51.340Z,1743
2019-05-25T11:29:05.439Z,1665
2019-05-25T11:30:19.528Z,1591
2019-05-25T11:31:33.699Z,1507
2019-05-25T11:32:47.709Z,1558
2019-05-25T11:34:01.813Z,1552
2019-05-25T11:35:16.040Z,1558
2019-05-25T11:36:30.110Z,1608
2019-05-25T11:37:44.204Z,1580
2019-05-25T11:38:58.281Z,1569
2019-05-25T11:40:12.294Z,1580
2019-05-25T11:41:26.475Z,1890
2019-05-25T11:42:40.492Z,2334
2019-05-25T11:43:54.565Z,2008
2019-05-25T11:45:08.655Z,1732
2019-05-25T11:46:22.750Z,1721
2019-05-25T11:47:36.832Z,1710
2019-05-25T11:48:50.985Z,1760
2019-05-25T11:50:05.072Z,1957
2019-05-25T11:51:19.144Z,1828
2019-05-25T11:52:33.153Z,2694
2019-05-25T11:53:47.237Z,2970
2019-05-25T11:55:01.766Z,2070
2019-05-25T11:56:15.390Z,2047
2019-05-25T11:57:29.470Z,2098
2019-05-25T11:58:43.641Z,2553
2019-05-25T11:59:57.609Z,2345
2019-05-25T12:01:11.689Z,2047
2019-05-25T12:02:25.940Z,1867
2019-05-25T12:03:39.964Z,3195
2019-05-25T12:04:53.918Z,2452
2019-05-25T12:06:07.994Z,1828
2019-05-25T12:07:22.127Z,2188
2019-05-25T12:08:36.205Z,5006
2019-05-25T12:09:50.213Z,4860
2019-05-25T12:11:04.381Z,1805
2019-05-25T12:12:18.335Z,2362
2019-05-25T12:13:32.422Z,2238
2019-05-25T12:14:46.476Z,1783
2019-05-25T12:16:00.541Z,2975
2019-05-25T12:18:28.654Z,2086
2019-05-25T12:19:42.729Z,1743
2019-05-25T12:20:56.801Z,1597
2019-05-25T12:22:10.862Z,1563
2019-05-25T12:23:24.934Z,1569
2019-05-25T12:24:39.007Z,1861
2019-05-25T12:25:53.185Z,1710
2019-05-25T12:27:07.308Z,1811
2019-05-25T12:28:21.258Z,2081
2019-05-25T12:29:35.404Z,1715
2019-05-25T12:30:50.875Z,2148
2019-05-25T12:32:05.511Z,1726
2019-05-25T12:33:19.229Z,2626
2019-05-25T12:34:32.562Z,4730
2019-05-25T12:35:46.170Z,4646
2019-05-25T12:36:59.761Z,4511
2019-05-25T12:38:13.892Z,4275
2019-05-25T12:39:27.858Z,4230
2019-05-25T12:40:41.980Z,4241
2019-05-25T12:41:56.037Z,1693
2019-05-25T12:43:09.996Z,1563
2019-05-25T12:45:38.110Z,4455
2019-05-25T12:46:52.183Z,2694
2019-05-25T12:48:06.255Z,4578
2019-05-25T12:50:35.877Z,4196
2019-05-25T12:53:02.562Z,4100
2019-05-25T12:54:16.436Z,4500
2019-05-25T12:55:30.587Z,4713
2019-05-25T12:56:50.455Z,1535
2019-05-25T12:57:58.594Z,2486
2019-05-25T12:59:12.680Z,4303
2019-05-25T13:00:26.790Z,4055
2019-05-25T13:01:40.752Z,3155
2019-05-25T13:02:54.869Z,4404
2019-05-25T13:04:08.838Z,2671
2019-05-25T13:05:23.090Z,3127
2019-05-25T13:06:36.939Z,2075
2019-05-25T13:07:51.093Z,2098
2019-05-25T13:09:05.074Z,4168
2019-05-25T13:10:20.625Z,2615
2019-05-25T13:11:33.160Z,2289
2019-05-25T13:12:47.233Z,5484
2019-05-25T13:14:01.297Z,2930
2019-05-25T13:15:15.354Z,2126
2019-05-25T13:16:29.403Z,4826
2019-05-25T13:17:43.618Z,4888
2019-05-25T13:18:57.509Z,5045
2019-05-25T13:20:11.560Z,2340
2019-05-25T13:21:25.655Z,2610
2019-05-25T13:22:39.659Z,4955
2019-05-25T13:25:10.507Z,3864
2019-05-25T13:26:21.791Z,4921
2019-05-25T13:27:37.873Z,4865
2019-05-25T13:28:49.870Z,4089
2019-05-25T13:30:03.914Z,1895
2019-05-25T13:31:18.074Z,1620
2019-05-25T13:32:32.116Z,1603
2019-05-25T13:33:46.168Z,1620
2019-05-25T13:35:00.149Z,1636
2019-05-25T13:36:14.193Z,2356
2019-05-25T13:37:28.355Z,2930
2019-05-25T13:38:42.327Z,1524
2019-05-25T13:39:56.477Z,1400
2019-05-25T13:41:10.470Z,1783
2019-05-25T13:42:24.546Z,1226
2019-05-25T13:43:38.625Z,1164
2019-05-25T13:44:52.724Z,1136
2019-05-25T13:46:06.936Z,1130
2019-05-25T13:47:20.920Z,1141
2019-05-25T13:48:34.986Z,1130
2019-05-25T13:49:49.091Z,1141
2019-05-25T13:51:03.201Z,1220
2019-05-25T13:52:17.280Z,1226
2019-05-25T13:53:31.413Z,1518
2019-05-25T13:54:45.503Z,2289
2019-05-25T13:55:59.588Z,1451
2019-05-25T13:57:13.686Z,1299
2019-05-25T13:58:27.863Z,1209
2019-05-25T13:59:41.881Z,1198
2019-05-25T14:02:10.161Z,1383
2019-05-25T14:03:24.282Z,4567
2019-05-25T14:04:38.304Z,2058
2019-05-25T14:05:52.372Z,4291
2019-05-25T14:07:06.515Z,4381
2019-05-25T14:08:20.561Z,4426
2019-05-25T14:09:35.762Z,3493
2019-05-25T14:10:48.736Z,2565
2019-05-25T14:12:02.815Z,3948
2019-05-25T14:13:16.891Z,4590
2019-05-25T14:14:30.971Z,4353
2019-05-25T14:15:45.067Z,1698
2019-05-25T14:16:59.179Z,1755
2019-05-25T14:18:13.218Z,1710
2019-05-25T14:19:27.368Z,1591
2019-05-25T14:20:41.815Z,2086
2019-05-25T14:21:55.473Z,1811
2019-05-25T14:23:09.523Z,2075
2019-05-25T14:24:23.619Z,4252
2019-05-25T14:25:37.691Z,3240
2019-05-25T14:26:51.766Z,1586
2019-05-25T14:28:05.861Z,2238
2019-05-25T14:29:19.917Z,4145
2019-05-25T14:30:34.084Z,4151
2019-05-25T14:31:48.061Z,3931
2019-05-25T14:33:02.232Z,3971
2019-05-25T14:34:16.304Z,4235
2019-05-25T14:36:44.295Z,3667
2019-05-25T14:39:12.476Z,1726
2019-05-25T14:40:26.523Z,1316
2019-05-25T14:41:40.497Z,3093
2019-05-25T14:42:54.671Z,3729
2019-05-25T14:44:08.607Z,2233
2019-05-25T14:45:22.745Z,1800
2019-05-25T14:46:36.806Z,2986
2019-05-25T14:47:50.811Z,2981
2019-05-25T14:49:04.916Z,3802
2019-05-25T14:50:20.602Z,3718
2019-05-25T14:52:47.021Z,3628
2019-05-25T14:54:02.799Z,3515
2019-05-25T14:56:29.313Z,3588
2019-05-25T14:57:43.297Z,3628
2019-05-25T14:59:00.571Z,3695
2019-05-25T15:00:14.697Z,3555
2019-05-25T15:01:25.501Z,1344
2019-05-25T15:02:39.557Z,916
2019-05-25T15:03:53.658Z,883
2019-05-25T15:05:07.780Z,1749
2019-05-25T15:06:21.770Z,1473
2019-05-25T15:07:35.838Z,1141
2019-05-25T15:08:52.929Z,1293
2019-05-25T15:10:04.005Z,3155
2019-05-25T15:11:18.088Z,3442
2019-05-25T15:12:32.188Z,3397
2019-05-25T15:13:46.240Z,3616
2019-05-25T15:15:00.822Z,3605
2019-05-25T15:16:14.389Z,1074
2019-05-25T15:17:28.466Z,1271
2019-05-25T15:18:42.554Z,3240
2019-05-25T15:19:56.715Z,3273
2019-05-25T15:21:10.677Z,3442
2019-05-25T15:22:24.747Z,3313
2019-05-25T15:23:41.649Z,984
2019-05-25T15:26:06.963Z,905
2019-05-25T15:28:35.105Z,1175
2019-05-25T15:29:49.193Z,1119
2019-05-25T15:31:03.305Z,995
2019-05-25T15:32:17.365Z,973
2019-05-25T15:33:35.946Z,967
2019-05-25T15:34:45.555Z,967
2019-05-25T15:35:59.645Z,2075
2019-05-25T15:37:13.754Z,3161
2019-05-25T15:38:27.870Z,2986
2019-05-25T15:39:41.980Z,2851
2019-05-25T15:40:56.050Z,928
2019-05-25T15:42:10.162Z,776
2019-05-25T15:43:24.268Z,703
2019-05-25T15:44:38.360Z,703
2019-05-25T15:45:52.473Z,697
2019-05-25T15:47:06.684Z,703
2019-05-25T15:48:20.737Z,686
2019-05-25T15:50:48.916Z,680
2019-05-25T15:52:03.228Z,720
2019-05-25T15:53:17.158Z,765
2019-05-25T15:54:31.310Z,2593
2019-05-25T15:55:45.457Z,2902
2019-05-25T15:56:59.521Z,826
2019-05-25T15:58:13.611Z,1029
2019-05-25T15:59:27.746Z,2683
2019-05-25T16:00:41.838Z,2733
2019-05-25T16:01:56.115Z,2745
2019-05-25T16:03:10.149Z,2722
2019-05-25T16:04:24.167Z,945
2019-05-25T16:05:38.287Z,1732
2019-05-25T16:06:52.405Z,2621
2019-05-25T16:08:06.462Z,1265
2019-05-25T16:09:20.758Z,1203
2019-05-25T16:10:34.656Z,748
2019-05-25T16:13:05.665Z,736
2019-05-25T16:14:17.018Z,1884
2019-05-25T16:15:31.051Z,2356
2019-05-25T16:16:45.142Z,883
2019-05-25T16:17:59.303Z,720
2019-05-25T16:19:13.320Z,2070
2019-05-25T16:20:27.413Z,1951
2019-05-25T16:21:47.605Z,675
2019-05-25T16:22:55.639Z,2143
2019-05-25T16:25:23.804Z,1951
2019-05-25T16:26:37.925Z,2109
2019-05-25T16:27:52.012Z,579
2019-05-25T16:29:06.188Z,551
2019-05-25T16:30:20.268Z,540
2019-05-25T16:31:34.336Z,545
2019-05-25T16:32:48.482Z,517
2019-05-25T16:34:02.541Z,506
2019-05-25T16:35:16.755Z,489
2019-05-25T16:36:30.904Z,489
2019-05-25T16:37:44.911Z,489
2019-05-25T16:38:59.085Z,495
2019-05-25T16:40:13.130Z,523
2019-05-25T16:41:27.348Z,540
2019-05-25T16:42:41.365Z,545
2019-05-25T16:43:55.617Z,1378
2019-05-25T16:45:09.606Z,1771
2019-05-25T16:46:23.735Z,1170
2019-05-25T16:47:37.921Z,562
2019-05-25T16:48:51.970Z,511
2019-05-25T16:50:06.179Z,500
2019-05-25T16:51:20.196Z,500
2019-05-25T16:52:34.329Z,506
2019-05-25T16:53:48.450Z,483
2019-05-25T16:55:02.573Z,444
2019-05-25T16:56:16.808Z,427
2019-05-25T16:57:30.839Z,416
2019-05-25T16:58:45.000Z,399
2019-05-25T16:59:59.098Z,405
2019-05-25T17:01:13.333Z,410
2019-05-25T17:02:27.370Z,691
2019-05-25T17:04:55.624Z,736
2019-05-25T17:07:23.876Z,556
2019-05-25T17:08:38.006Z,461
2019-05-25T17:09:52.164Z,433
2019-05-25T17:11:06.284Z,421
2019-05-25T17:12:20.383Z,433
2019-05-25T17:13:34.500Z,815
2019-05-25T17:14:48.686Z,421
2019-05-25T17:17:16.873Z,1603
2019-05-25T17:18:31.127Z,1445
2019-05-25T17:19:45.092Z,472
2019-05-25T17:20:59.289Z,680
2019-05-25T17:22:13.327Z,579
2019-05-25T17:23:27.481Z,1164
2019-05-25T17:24:41.557Z,781
2019-05-25T17:27:09.852Z,562
2019-05-25T17:28:23.961Z,1012
2019-05-25T17:29:37.989Z,849
2019-05-25T17:30:52.241Z,838
2019-05-25T17:32:06.252Z,967
2019-05-25T17:33:20.395Z,832
2019-05-25T17:34:34.395Z,540
2019-05-25T17:35:48.504Z,455
2019-05-25T17:37:02.602Z,573
2019-05-25T17:38:16.798Z,478
2019-05-25T17:39:30.819Z,472
2019-05-25T17:40:44.970Z,472
2019-05-25T17:41:59.023Z,495
2019-05-25T17:43:13.132Z,444
2019-05-25T17:44:27.329Z,433
2019-05-25T17:45:41.378Z,753
2019-05-25T17:46:55.591Z,753
2019-05-25T17:48:09.614Z,517
2019-05-25T17:49:23.741Z,826
2019-05-25T17:50:37.835Z,826
2019-05-25T17:51:52.033Z,770
2019-05-25T17:53:06.286Z,742
2019-05-25T17:54:20.262Z,686
2019-05-25T17:55:35.392Z,680
2019-05-25T17:56:48.455Z,720
2019-05-25T17:58:02.507Z,759
2019-05-25T17:59:16.611Z,714
2019-05-25T18:00:30.725Z,697
2019-05-25T18:01:44.838Z,675
2019-05-25T18:02:59.049Z,669
2019-05-25T18:04:13.169Z,686
2019-05-25T18:06:41.377Z,607
2019-05-25T18:09:09.494Z,624